createdAt,value
2018-11-12T00:00:56.758Z,0.90
2018-11-12T00:03:26.257Z,1.10
2018-11-12T00:05:53.933Z,1.20
2018-11-12T00:08:21.499Z,1.00
2018-11-12T00:10:49.042Z,0.90
2018-11-12T00:13:17.221Z,0.90
2018-11-12T00:15:44.793Z,0.70
2018-11-12T00:18:12.337Z,0.83
2018-11-12T00:20:39.861Z,0.60
2018-11-12T00:23:07.430Z,0.90
2018-11-12T00:25:34.969Z,0.73
2018-11-12T00:28:03.429Z,0.50
2018-11-12T00:30:30.966Z,0.80
2018-11-12T00:32:58.519Z,0.70
2018-11-12T00:35:26.065Z,0.80
2018-11-12T00:37:53.633Z,0.80
2018-11-12T00:40:21.171Z,0.70
2018-11-12T00:42:48.709Z,0.83
2018-11-12T00:45:16.614Z,0.90
2018-11-12T00:47:44.285Z,0.70
2018-11-12T00:50:12.942Z,0.70
2018-11-12T00:52:40.485Z,0.90
2018-11-12T00:55:09.505Z,0.80
2018-11-12T00:57:37.049Z,0.70
2018-11-12T01:00:07.373Z,0.80
2018-11-12T01:02:34.913Z,0.70
2018-11-12T01:05:02.490Z,0.70
2018-11-12T01:07:30.018Z,0.90
2018-11-12T01:09:57.573Z,0.67
2018-11-12T01:12:25.114Z,0.70
2018-11-12T01:14:52.675Z,0.60
2018-11-12T01:17:20.793Z,0.67
2018-11-12T01:19:48.357Z,0.73
2018-11-12T01:22:15.909Z,0.50
2018-11-12T01:24:43.485Z,0.60
2018-11-12T01:27:11.029Z,0.70
2018-11-12T01:29:38.589Z,0.63
2018-11-12T01:32:06.164Z,0.60
2018-11-12T01:34:33.725Z,0.60
2018-11-12T01:37:01.257Z,0.60
2018-11-12T01:39:28.782Z,0.60
2018-11-12T01:41:56.383Z,0.67
2018-11-12T01:44:23.922Z,0.60
2018-11-12T01:46:51.686Z,0.70
2018-11-12T01:49:19.366Z,0.70
2018-11-12T01:51:46.921Z,0.70
2018-11-12T01:54:14.521Z,0.63
2018-11-12T01:56:42.098Z,0.70
2018-11-12T01:59:09.633Z,0.60
2018-11-12T02:01:37.287Z,0.77
2018-11-12T02:04:05.415Z,0.83
2018-11-12T02:06:32.973Z,0.60
2018-11-12T02:09:00.625Z,0.87
2018-11-12T02:11:28.074Z,0.90
2018-11-12T02:13:55.631Z,0.60
2018-11-12T02:16:23.329Z,0.80
2018-11-12T02:18:50.949Z,0.90
2018-11-12T02:21:18.538Z,0.90
2018-11-12T02:23:46.065Z,0.63
2018-11-12T02:26:14.589Z,0.80
2018-11-12T02:28:42.141Z,0.93
2018-11-12T02:31:09.703Z,0.80
2018-11-12T02:33:37.245Z,0.90
2018-11-12T02:36:05.498Z,0.90
2018-11-12T02:38:35.962Z,0.80
2018-11-12T02:41:03.541Z,0.80
2018-11-12T02:43:31.108Z,1.00
2018-11-12T02:45:58.650Z,0.80
2018-11-12T02:48:26.206Z,0.73
2018-11-12T02:50:53.809Z,1.00
2018-11-12T02:53:21.365Z,0.87
2018-11-12T02:55:48.913Z,0.90
2018-11-12T02:58:27.795Z,0.90
2018-11-12T03:01:06.200Z,1.00
2018-11-12T03:03:33.754Z,1.10
2018-11-12T03:06:02.180Z,1.10
2018-11-12T03:08:29.762Z,1.20
2018-11-12T03:10:57.321Z,1.10
2018-11-12T03:13:24.861Z,0.90
2018-11-12T03:15:52.397Z,1.00
2018-11-12T03:18:19.949Z,1.00
2018-11-12T03:20:47.518Z,1.13
2018-11-12T03:23:19.191Z,1.10
2018-11-12T03:25:46.750Z,1.20
2018-11-12T03:28:14.313Z,1.10
2018-11-12T03:30:41.845Z,0.90
2018-11-12T03:33:09.402Z,1.00
2018-11-12T03:35:36.945Z,1.00
2018-11-12T03:38:04.530Z,1.13
2018-11-12T03:40:32.142Z,0.90
2018-11-12T03:42:59.675Z,1.20
2018-11-12T03:45:27.258Z,1.00
2018-11-12T03:47:54.793Z,1.80
2018-11-12T03:50:25.506Z,1.33
2018-11-12T03:52:56.966Z,1.07
2018-11-12T03:55:24.774Z,1.10
2018-11-12T03:57:52.377Z,1.10
2018-11-12T04:00:21.905Z,1.40
2018-11-12T04:02:49.465Z,1.10
2018-11-12T04:05:17.034Z,1.20
2018-11-12T04:07:44.605Z,1.20
2018-11-12T04:10:16.237Z,1.30
2018-11-12T04:12:43.789Z,1.20
2018-11-12T04:15:14.248Z,1.13
2018-11-12T04:17:41.825Z,1.27
2018-11-12T04:20:11.013Z,1.20
2018-11-12T04:22:39.245Z,1.10
2018-11-12T04:25:07.751Z,1.30
2018-11-12T04:27:35.535Z,1.23
2018-11-12T04:30:03.494Z,1.13
2018-11-12T04:32:31.094Z,1.30
2018-11-12T04:34:58.681Z,1.00
2018-11-12T04:37:26.354Z,0.90
2018-11-12T04:39:53.918Z,0.97
2018-11-12T04:42:21.723Z,1.07
2018-11-12T04:44:49.340Z,1.10
2018-11-12T04:47:16.914Z,1.03
2018-11-12T04:49:44.466Z,1.13
2018-11-12T04:52:12.025Z,1.20
2018-11-12T04:54:39.565Z,1.30
2018-11-12T04:57:07.143Z,1.23
2018-11-12T04:59:34.714Z,1.73
2018-11-12T05:02:02.978Z,1.80
2018-11-12T05:04:30.503Z,1.77
2018-11-12T05:09:28.030Z,1.80
2018-11-12T05:11:55.630Z,2.10
2018-11-12T05:14:23.183Z,1.70
2018-11-12T05:16:51.318Z,1.93
2018-11-12T05:19:18.857Z,1.80
2018-11-12T05:21:46.442Z,2.00
2018-11-12T05:24:13.985Z,1.90
2018-11-12T05:26:41.545Z,1.70
2018-11-12T05:29:09.109Z,1.73
2018-11-12T05:31:36.677Z,2.00
2018-11-12T05:34:05.060Z,2.00
2018-11-12T05:36:32.670Z,2.20
2018-11-12T05:39:00.234Z,2.87
2018-11-12T05:41:27.831Z,2.97
2018-11-12T05:43:55.411Z,2.77
2018-11-12T05:46:22.967Z,3.03
2018-11-12T05:48:50.545Z,2.70
2018-11-12T05:51:18.144Z,13.67
2018-11-12T05:53:45.730Z,45.33
2018-11-12T05:56:13.615Z,8.43
2018-11-12T05:58:41.217Z,3.40
2018-11-12T06:01:08.779Z,3.30
2018-11-12T06:03:36.357Z,2.57
2018-11-12T06:06:03.923Z,2.07
2018-11-12T06:08:32.045Z,1.93
2018-11-12T06:10:59.593Z,2.13
2018-11-12T06:13:27.217Z,3.30
2018-11-12T06:15:54.778Z,2.27
2018-11-12T06:18:22.836Z,1.60
2018-11-12T06:20:50.409Z,1.63
2018-11-12T06:23:17.984Z,1.90
2018-11-12T06:25:45.555Z,1.47
2018-11-12T06:28:13.137Z,1.70
2018-11-12T06:30:40.720Z,1.70
2018-11-12T06:33:08.331Z,2.67
2018-11-12T06:35:35.931Z,2.20
2018-11-12T06:38:03.534Z,2.00
2018-11-12T06:40:31.218Z,2.10
2018-11-12T06:42:58.779Z,2.57
2018-11-12T06:45:29.949Z,4.93
2018-11-12T06:47:58.202Z,52.93
2018-11-12T06:50:27.218Z,24.37
2018-11-12T06:52:55.895Z,3.10
2018-11-12T06:55:23.773Z,2.50
2018-11-12T06:57:51.665Z,2.00
2018-11-12T07:00:21.654Z,2.23
2018-11-12T07:02:49.313Z,2.20
2018-11-12T07:05:17.184Z,2.17
2018-11-12T07:07:44.757Z,2.37
2018-11-12T07:10:13.755Z,2.87
2018-11-12T07:12:42.173Z,2.50
2018-11-12T07:15:11.182Z,2.47
2018-11-12T07:17:39.022Z,2.80
2018-11-12T07:20:08.588Z,2.60
2018-11-12T07:22:36.175Z,2.70
2018-11-12T07:25:04.104Z,2.70
2018-11-12T07:27:31.703Z,2.60
2018-11-12T07:29:59.322Z,2.87
2018-11-12T07:32:26.881Z,2.70
2018-11-12T07:34:54.437Z,2.87
2018-11-12T07:37:22.338Z,3.07
2018-11-12T07:39:49.970Z,2.90
2018-11-12T07:42:17.570Z,2.80
2018-11-12T07:44:45.157Z,3.40
2018-11-12T07:47:12.739Z,3.50
2018-11-12T07:49:40.282Z,3.20
2018-11-12T07:52:07.918Z,3.57
2018-11-12T07:54:35.534Z,4.00
2018-11-12T07:57:03.193Z,3.63
2018-11-12T07:59:30.758Z,4.10
2018-11-12T08:01:58.381Z,4.27
2018-11-12T08:04:26.006Z,4.20
2018-11-12T08:06:53.662Z,4.80
2018-11-12T08:09:21.248Z,4.53
2018-11-12T08:11:48.917Z,4.87
2018-11-12T08:14:16.542Z,4.97
2018-11-12T08:16:44.126Z,5.13
2018-11-12T08:19:11.689Z,4.83
2018-11-12T08:21:39.310Z,5.37
2018-11-12T08:24:06.907Z,6.00
2018-11-12T08:26:34.495Z,5.93
2018-11-12T08:29:02.261Z,5.97
2018-11-12T08:31:29.825Z,6.53
2018-11-12T08:33:57.442Z,5.53
2018-11-12T08:36:25.060Z,5.40
2018-11-12T08:38:52.630Z,5.73
2018-11-12T08:41:20.255Z,5.20
2018-11-12T08:43:47.838Z,5.43
2018-11-12T08:46:15.533Z,4.80
2018-11-12T08:48:43.184Z,4.90
2018-11-12T08:51:10.790Z,5.03
2018-11-12T08:53:38.369Z,43.13
2018-11-12T08:56:06.028Z,84.20
2018-11-12T08:58:33.627Z,10.30
2018-11-12T09:01:01.218Z,5.10
2018-11-12T09:03:28.814Z,5.20
2018-11-12T09:05:56.452Z,5.00
2018-11-12T09:08:24.041Z,5.27
2018-11-12T09:10:51.938Z,4.13
2018-11-12T09:13:19.513Z,3.57
2018-11-12T09:15:47.199Z,3.23
2018-11-12T09:18:14.758Z,3.30
2018-11-12T09:20:42.394Z,3.30
2018-11-12T09:23:10.006Z,2.90
2018-11-12T09:25:37.731Z,2.97
2018-11-12T09:28:05.341Z,2.47
2018-11-12T09:30:32.946Z,2.40
2018-11-12T09:33:00.517Z,2.27
2018-11-12T09:35:30.153Z,2.20
2018-11-12T09:37:58.629Z,2.00
2018-11-12T09:40:28.636Z,1.70
2018-11-12T09:42:56.389Z,1.80
2018-11-12T09:45:24.061Z,1.50
2018-11-12T09:47:51.741Z,1.50
2018-11-12T09:50:20.426Z,1.30
2018-11-12T09:52:49.201Z,1.40
2018-11-12T09:55:17.510Z,1.40
2018-11-12T09:57:46.582Z,1.30
2018-11-12T10:00:15.732Z,1.33
2018-11-12T10:02:45.384Z,1.20
2018-11-12T10:05:13.416Z,1.40
2018-11-12T10:07:41.938Z,1.50
2018-11-12T10:10:17.840Z,1.20
2018-11-12T10:12:45.661Z,1.53
2018-11-12T10:15:13.398Z,1.30
2018-11-12T10:17:41.732Z,1.27
2018-11-12T10:20:06.336Z,1.30
2018-11-12T10:22:33.913Z,1.30
2018-11-12T10:25:01.518Z,1.40
2018-11-12T10:27:29.089Z,1.40
2018-11-12T10:29:56.802Z,1.60
2018-11-12T10:32:24.393Z,1.60
2018-11-12T10:34:51.969Z,1.40
2018-11-12T10:37:19.562Z,1.60
2018-11-12T10:39:47.129Z,1.60
2018-11-12T10:42:14.718Z,1.00
2018-11-12T10:44:42.370Z,13.17
2018-11-12T10:47:10.198Z,4.43
2018-11-12T10:49:39.666Z,1.60
2018-11-12T10:52:07.296Z,1.20
2018-11-12T10:54:34.979Z,1.57
2018-11-12T10:57:02.640Z,1.30
2018-11-12T10:59:30.271Z,1.80
2018-11-12T11:02:03.474Z,1.30
2018-11-12T11:04:31.073Z,1.10
2018-11-12T11:06:58.662Z,1.40
2018-11-12T11:09:26.233Z,1.10
2018-11-12T11:11:53.810Z,1.13
2018-11-12T11:14:21.377Z,1.30
2018-11-12T11:16:48.974Z,1.27
2018-11-12T11:19:16.550Z,1.40
2018-11-12T11:21:44.150Z,1.40
2018-11-12T11:24:11.734Z,1.30
2018-11-12T11:26:39.353Z,1.53
2018-11-12T11:29:06.950Z,1.10
2018-11-12T11:31:34.522Z,4.20
2018-11-12T11:34:02.146Z,1.87
2018-11-12T11:36:29.737Z,1.43
2018-11-12T11:38:57.344Z,1.30
2018-11-12T11:41:24.915Z,1.00
2018-11-12T11:43:52.567Z,1.27
2018-11-12T11:46:20.117Z,0.90
2018-11-12T11:48:47.864Z,1.00
2018-11-12T11:51:15.446Z,1.27
2018-11-12T11:53:43.109Z,1.10
2018-11-12T11:56:10.745Z,0.97
2018-11-12T11:58:38.338Z,1.00
2018-11-12T12:01:05.934Z,0.90
2018-11-12T12:03:33.546Z,1.17
2018-11-12T12:06:01.109Z,0.83
2018-11-12T12:08:29.059Z,0.93
2018-11-12T12:10:56.625Z,1.40
2018-11-12T12:13:24.245Z,0.90
2018-11-12T12:15:51.824Z,0.90
2018-11-12T12:18:19.697Z,0.83
2018-11-12T12:20:47.358Z,1.03
2018-11-12T12:23:14.952Z,1.00
2018-11-12T12:25:42.708Z,1.00
2018-11-12T12:28:10.186Z,1.17
2018-11-12T12:30:37.782Z,1.10
2018-11-12T12:33:05.434Z,1.10
2018-11-12T12:35:33.108Z,1.20
2018-11-12T12:38:00.637Z,2.13
2018-11-12T12:40:28.262Z,1.10
2018-11-12T12:42:55.893Z,1.73
2018-11-12T12:45:24.947Z,1.10
2018-11-12T12:47:53.002Z,1.30
2018-11-12T12:50:20.643Z,1.20
2018-11-12T12:52:48.338Z,1.10
2018-11-12T12:55:16.449Z,3.40
2018-11-12T12:57:44.878Z,20.37
2018-11-12T13:00:15.778Z,1.40
2018-11-12T13:02:44.486Z,1.00
2018-11-12T13:05:12.174Z,1.10
2018-11-12T13:07:40.239Z,1.30
2018-11-12T13:10:09.563Z,2.47
2018-11-12T13:12:37.187Z,2.17
2018-11-12T13:15:10.371Z,2.50
2018-11-12T13:17:37.966Z,2.60
2018-11-12T13:20:07.082Z,3.47
2018-11-12T13:22:34.778Z,7.93
2018-11-12T13:25:02.470Z,7.93
2018-11-12T13:27:30.401Z,7.60
2018-11-12T13:29:58.898Z,8.40
2018-11-12T13:32:26.531Z,8.57
2018-11-12T13:34:54.114Z,9.40
2018-11-12T13:37:21.738Z,9.77
2018-11-12T13:39:49.502Z,12.10
2018-11-12T13:42:17.391Z,10.80
2018-11-12T13:44:44.954Z,11.50
2018-11-12T13:47:12.538Z,11.30
2018-11-12T13:49:40.103Z,11.57
2018-11-12T13:52:07.693Z,13.03
2018-11-12T13:54:35.257Z,13.70
2018-11-12T13:57:02.884Z,14.87
2018-11-12T13:59:30.446Z,14.50
2018-11-12T14:01:58.058Z,15.00
2018-11-12T14:04:25.610Z,15.10
2018-11-12T14:06:53.226Z,15.47
2018-11-12T14:09:21.646Z,15.43
2018-11-12T14:11:49.290Z,17.57
2018-11-12T14:14:16.902Z,15.40
2018-11-12T14:16:44.665Z,15.37
2018-11-12T14:19:12.289Z,14.97
2018-11-12T14:21:40.054Z,13.93
2018-11-12T14:24:07.514Z,12.50
2018-11-12T14:26:35.530Z,12.33
2018-11-12T14:29:03.201Z,11.57
2018-11-12T14:31:31.078Z,12.77
2018-11-12T14:33:58.690Z,12.10
2018-11-12T14:36:26.368Z,11.13
2018-11-12T14:38:53.989Z,10.73
2018-11-12T14:41:21.562Z,9.90
2018-11-12T14:43:49.316Z,9.63
2018-11-12T14:46:16.868Z,9.90
2018-11-12T14:48:44.971Z,10.00
2018-11-12T14:51:12.909Z,9.87
2018-11-12T14:53:40.437Z,9.90
2018-11-12T14:56:08.027Z,9.10
2018-11-12T14:58:35.950Z,8.97
2018-11-12T15:01:03.561Z,9.30
2018-11-12T15:03:31.410Z,9.60
2018-11-12T15:05:59.887Z,9.10
2018-11-12T15:08:27.551Z,9.60
2018-11-12T15:10:55.191Z,9.73
2018-11-12T15:13:22.894Z,9.47
2018-11-12T15:15:50.694Z,10.00
2018-11-12T15:18:18.270Z,10.13
2018-11-12T15:20:45.841Z,10.03
2018-11-12T15:23:13.424Z,13.50
2018-11-12T15:25:41.018Z,11.97
2018-11-12T15:28:08.601Z,10.70
2018-11-12T15:30:36.202Z,11.53
2018-11-12T15:33:03.780Z,11.47
2018-11-12T15:35:31.370Z,12.03
2018-11-12T15:37:58.954Z,11.37
2018-11-12T15:40:27.465Z,17.90
2018-11-12T15:42:55.531Z,13.13
2018-11-12T15:45:24.813Z,12.30
2018-11-12T15:47:53.126Z,12.73
2018-11-12T15:50:28.978Z,11.73
2018-11-12T15:52:56.594Z,10.43
2018-11-12T15:55:24.298Z,10.20
2018-11-12T15:57:52.091Z,10.57
2018-11-12T16:00:19.654Z,10.63
2018-11-12T16:02:47.213Z,10.23
2018-11-12T16:05:15.003Z,9.40
2018-11-12T16:07:42.764Z,8.90
2018-11-12T16:10:12.974Z,9.97
2018-11-12T16:12:40.979Z,9.53
2018-11-12T16:15:09.462Z,9.13
2018-11-12T16:17:37.094Z,8.80
2018-11-12T16:20:08.530Z,9.13
2018-11-12T16:22:36.150Z,9.03
2018-11-12T16:25:04.914Z,9.33
2018-11-12T16:27:32.518Z,9.60
2018-11-12T16:30:04.748Z,8.90
2018-11-12T16:32:32.498Z,9.17
2018-11-12T16:35:00.262Z,9.23
2018-11-12T16:37:27.962Z,8.60
2018-11-12T16:39:55.706Z,8.77
2018-11-12T16:42:23.358Z,8.10
2018-11-12T16:44:50.951Z,8.60
2018-11-12T16:47:18.573Z,8.70
2018-11-12T16:49:46.169Z,8.53
2018-11-12T16:52:13.904Z,8.93
2018-11-12T16:54:41.721Z,8.70
2018-11-12T16:57:09.302Z,9.43
2018-11-12T16:59:36.895Z,8.53
2018-11-12T17:02:05.073Z,10.40
2018-11-12T17:04:32.650Z,16.47
2018-11-12T17:07:00.250Z,10.67
2018-11-12T17:09:27.823Z,9.20
2018-11-12T17:11:55.874Z,9.03
2018-11-12T17:14:23.548Z,8.70
2018-11-12T17:16:51.154Z,9.43
2018-11-12T17:19:18.789Z,9.50
2018-11-12T17:21:46.378Z,9.40
2018-11-12T17:24:13.978Z,9.70
2018-11-12T17:26:41.534Z,9.57
2018-11-12T17:29:09.556Z,9.73
2018-11-12T17:31:37.127Z,9.23
2018-11-12T17:34:05.097Z,9.53
2018-11-12T17:36:32.776Z,9.17
2018-11-12T17:39:00.461Z,9.20
2018-11-12T17:41:58.825Z,17.87
2018-11-12T17:44:26.399Z,10.73
2018-11-12T17:46:53.970Z,10.50
2018-11-12T17:49:21.554Z,10.40
2018-11-12T17:51:49.291Z,10.83
2018-11-12T17:54:16.931Z,10.63
2018-11-12T17:56:44.661Z,10.67
2018-11-12T17:59:16.038Z,10.27
2018-11-12T18:01:43.611Z,11.33
2018-11-12T18:04:11.216Z,12.03
2018-11-12T18:06:38.754Z,13.07
2018-11-12T18:09:07.979Z,12.90
2018-11-12T18:11:35.539Z,13.07
2018-11-12T18:14:03.139Z,13.53
2018-11-12T18:16:30.711Z,14.43
2018-11-12T18:19:05.423Z,13.77
2018-11-12T18:21:33.087Z,13.90
2018-11-12T18:24:00.785Z,14.47
2018-11-12T18:26:28.354Z,14.03
2018-11-12T18:28:58.154Z,14.30
2018-11-12T18:31:25.817Z,14.03
2018-11-12T18:33:53.330Z,13.93
2018-11-12T18:36:20.939Z,14.60
2018-11-12T18:38:48.581Z,14.30
2018-11-12T18:41:16.173Z,14.83
2018-11-12T18:43:43.853Z,14.93
2018-11-12T18:46:11.859Z,14.40
2018-11-12T18:48:39.450Z,13.77
2018-11-12T18:51:07.066Z,14.60
2018-11-12T18:53:35.302Z,15.47
2018-11-12T18:56:02.898Z,15.03
2018-11-12T18:58:30.454Z,15.60
2018-11-12T19:00:58.078Z,15.43
2018-11-12T19:03:25.650Z,15.40
2018-11-12T19:05:53.263Z,15.90
2018-11-12T19:08:20.806Z,15.70
2018-11-12T19:10:48.406Z,15.30
2018-11-12T19:13:16.502Z,15.47
2018-11-12T19:15:44.086Z,16.40
2018-11-12T19:18:14.940Z,16.87
2018-11-12T19:20:42.521Z,17.30
2018-11-12T19:23:10.066Z,16.50
2018-11-12T19:25:37.642Z,16.30
2018-11-12T19:28:06.484Z,16.17
2018-11-12T19:30:34.034Z,17.17
2018-11-12T19:33:01.611Z,18.17
2018-11-12T19:35:33.158Z,17.57
2018-11-12T19:38:00.861Z,17.43
2018-11-12T19:40:29.912Z,17.03
2018-11-12T19:42:59.462Z,16.90
2018-11-12T19:45:27.040Z,17.07
2018-11-12T19:47:54.858Z,16.73
2018-11-12T19:50:23.684Z,19.00
2018-11-12T19:52:52.475Z,18.40
2018-11-12T19:55:20.157Z,19.77
2018-11-12T19:57:48.071Z,20.20
2018-11-12T20:00:17.433Z,21.80
2018-11-12T20:02:46.405Z,21.80
2018-11-12T20:05:14.093Z,21.23
2018-11-12T20:07:42.073Z,20.97
2018-11-12T20:10:11.198Z,21.40
2018-11-12T20:12:39.142Z,20.27
2018-11-12T20:15:08.714Z,20.77
2018-11-12T20:17:36.285Z,19.97
2018-11-12T20:20:05.609Z,19.97
2018-11-12T20:22:33.173Z,19.10
2018-11-12T20:25:00.781Z,18.93
2018-11-12T20:27:28.472Z,19.67
2018-11-12T20:29:56.242Z,18.77
2018-11-12T20:32:23.865Z,34.80
2018-11-12T20:34:51.370Z,18.73
2018-11-12T20:37:19.177Z,22.03
2018-11-12T20:39:46.866Z,36.80
2018-11-12T20:42:14.466Z,26.87
2018-11-12T20:44:42.049Z,17.30
2018-11-12T20:47:09.651Z,16.57
2018-11-12T20:49:37.234Z,17.23
2018-11-12T20:52:05.194Z,17.73
2018-11-12T20:54:32.793Z,17.20
2018-11-12T20:57:00.339Z,18.13
2018-11-12T20:59:27.998Z,16.73
2018-11-12T21:01:55.594Z,17.70
2018-11-12T21:04:23.198Z,17.13
2018-11-12T21:06:51.010Z,16.87
2018-11-12T21:09:18.595Z,16.73
2018-11-12T21:11:46.242Z,15.87
2018-11-12T21:14:13.830Z,16.13
2018-11-12T21:16:41.385Z,15.90
2018-11-12T21:19:09.916Z,15.40
2018-11-12T21:21:37.695Z,15.60
2018-11-12T21:24:09.365Z,15.67
2018-11-12T21:26:36.925Z,16.03
2018-11-12T21:29:06.227Z,15.70
2018-11-12T21:31:33.768Z,15.70
2018-11-12T21:34:01.359Z,15.33
2018-11-12T21:36:29.210Z,14.97
2018-11-12T21:38:57.033Z,15.20
2018-11-12T21:41:24.645Z,14.80
2018-11-12T21:43:52.262Z,14.07
2018-11-12T21:46:19.766Z,14.70
2018-11-12T21:48:47.389Z,15.07
2018-11-12T21:51:14.893Z,14.73
2018-11-12T21:53:42.462Z,15.87
2018-11-12T21:56:10.377Z,15.63
2018-11-12T21:58:38.011Z,16.03
2018-11-12T22:01:05.650Z,16.40
2018-11-12T22:03:33.210Z,16.07
2018-11-12T22:06:00.757Z,16.70
2018-11-12T22:08:28.409Z,16.17
2018-11-12T22:10:55.953Z,16.77
2018-11-12T22:13:23.786Z,16.87
2018-11-12T22:15:51.333Z,17.93
2018-11-12T22:18:18.900Z,17.20
2018-11-12T22:20:46.977Z,18.40
2018-11-12T22:23:14.515Z,18.00
2018-11-12T22:25:42.088Z,19.00
2018-11-12T22:28:10.099Z,18.83
2018-11-12T22:30:37.760Z,19.60
2018-11-12T22:33:05.422Z,19.60
2018-11-12T22:35:32.977Z,18.93
2018-11-12T22:38:00.529Z,18.60
2018-11-12T22:40:28.094Z,18.13
2018-11-12T22:42:55.625Z,17.43
2018-11-12T22:45:24.369Z,17.53
2018-11-12T22:47:52.105Z,17.17
2018-11-12T22:50:19.705Z,18.13
2018-11-12T22:52:47.261Z,18.43
2018-11-12T22:55:15.909Z,19.07
2018-11-12T22:57:43.532Z,18.50
2018-11-12T23:00:19.076Z,20.27
2018-11-12T23:02:47.109Z,19.30
2018-11-12T23:05:15.206Z,19.87
2018-11-12T23:07:43.244Z,20.20
2018-11-12T23:10:10.790Z,19.77
2018-11-12T23:12:38.593Z,20.30
2018-11-12T23:15:06.837Z,19.63
2018-11-12T23:17:34.370Z,19.60
2018-11-12T23:20:01.995Z,18.83
2018-11-12T23:22:29.581Z,19.73
2018-11-12T23:24:57.130Z,18.30
2018-11-12T23:27:24.687Z,19.83
2018-11-12T23:29:52.418Z,19.47
2018-11-12T23:32:20.039Z,19.33
2018-11-12T23:34:47.580Z,18.93
2018-11-12T23:37:15.133Z,19.10
2018-11-12T23:39:42.701Z,19.67
2018-11-12T23:42:10.294Z,19.37
2018-11-12T23:44:37.841Z,20.83
2018-11-12T23:47:05.636Z,19.83
2018-11-12T23:49:33.209Z,20.67
2018-11-12T23:52:00.746Z,20.57
2018-11-12T23:54:28.345Z,19.03
2018-11-12T23:56:55.897Z,18.27
2018-11-12T23:59:23.464Z,19.10
